Terminal Aerodrome Forecast
Issued by NWS Pocatello, ID

Home | Current Version | Previous Version | Text Only | Print | Product List | Glossary On
Versions: 1 2 3 4 5 6 7 8 9 10 11 12 13 14 15 16 17 18 19 20 21 22 23 24 25 26
000
FTUS45 KPIH 211723
TAFPIH
TAF
KPIH 211723Z 2118/2218 18009KT P6SM OVC090
     FM220300 20010G20KT P6SM -RASN SCT010 BKN020 OVC030
     FM220800 22015G25KT P6SM VCSH OVC015
     FM221500 23015G25KT P6SM SCT015 BKN040=

USA.gov is the U.S. government's official web portal to all federal, state and local government web resources and services.